UAAH/BXH METAR and TAF weather

Enter ICAO airport designator
Station Type Date Time Source
UAAH METAR 2020/04/04 06:00 UTC NOAA

UAAH 040600Z 09006MPS CAVOK 18/M01 Q1022 R05/0///60 NOSIG RMK QFE729/0972


Station Type Date Time Source
UAAH Decoded METAR 2020/04/04 06:00 UTC NOAA

Station name not available
Apr 04, 2020 - 02:00 AM EDT / 2020.04.04 0600 UTC
Wind: from the E (090 degrees) at 13 MPH (12 KT):0
Visibility: greater than 7 mile(s):0
Temperature: 64 F (18 C)
Dew Point: 30 F (-1 C)
Relative Humidity: 27%
Pressure (altimeter): 30.18 in. Hg (1022 hPa)
ob: UAAH 040600Z 09006MPS CAVOK 18/M01 Q1022 R05/0///60 NOSIG RMK QFE729/0972
cycle: 6

Station Type Date Time Source
UAAH TAF 2016/09/21 12:09 UTC NOAA

TAF
AMD TAF
AMD UAAH 211506Z 2112/2124 36006MPS CAVOK

Example: see airport list